Time;durP1;ratioP1;P1;durP2;ratioP2;P2;SDS_P1;SDS_P2;PMS_P1;PMS_P2;Temp;Humidity;BMP_temperature;BMP_pressure;BME280_temperature;BME280_humidity;BME280_pressure;Samples;Min_cycle;Max_cycle;Signal;HPM_P1;HPM_P2
2024/03/03 00:01:00;;;;;;;38.95;16.38;;;;;;;7.93;100.00;97183.78;5055312;28;20036;-54
2024/03/03 00:03:25;;;;;;;33.03;15.60;;;;;;;7.77;100.00;97171.75;5071287;28;20032;-54
2024/03/03 00:05:51;;;;;;;35.28;15.77;;;;;;;7.80;100.00;97170.47;5069310;28;20422;-54
2024/03/03 00:08:16;;;;;;;36.15;15.18;;;;;;;7.75;100.00;97167.63;5065071;28;20066;-54
2024/03/03 00:10:41;;;;;;;37.28;14.88;;;;;;;7.58;100.00;97170.94;5072783;28;20040;-54
2024/03/03 00:13:07;;;;;;;33.08;16.05;;;;;;;7.56;100.00;97164.94;5051767;28;20479;-54
2024/03/03 00:15:32;;;;;;;32.92;15.48;;;;;;;7.58;100.00;97176.31;5072568;28;20028;-54
2024/03/03 00:17:58;;;;;;;34.28;15.48;;;;;;;7.55;100.00;97167.88;5071001;28;20040;-54
2024/03/03 00:20:23;;;;;;;32.53;15.25;;;;;;;7.61;100.00;97183.13;5067825;28;20469;-54
2024/03/03 00:22:49;;;;;;;32.63;15.18;;;;;;;7.55;100.00;97179.47;5072534;28;20088;-54
2024/03/03 00:25:14;;;;;;;34.78;15.88;;;;;;;7.48;100.00;97173.31;5071605;28;20030;-54
2024/03/03 00:27:40;;;;;;;40.15;14.73;;;;;;;7.37;100.00;97177.59;5068072;28;20025;-54
2024/03/03 00:30:06;;;;;;;37.70;15.65;;;;;;;7.30;100.00;97173.31;5064129;28;20405;-63
2024/03/03 00:32:31;;;;;;;35.25;15.55;;;;;;;7.23;100.00;97171.53;5065610;28;20032;-64
2024/03/03 00:34:57;;;;;;;32.20;14.93;;;;;;;7.17;100.00;97177.78;5075254;28;20073;-64
2024/03/03 00:37:22;;;;;;;32.97;14.55;;;;;;;7.06;100.00;97165.06;5079122;28;20016;-63
2024/03/03 00:39:48;;;;;;;35.50;15.35;;;;;;;6.93;100.00;97163.31;5073289;28;20032;-63
2024/03/03 00:42:13;;;;;;;34.53;15.13;;;;;;;6.90;100.00;97165.63;5070652;28;20033;-63
2024/03/03 00:44:39;;;;;;;36.85;15.63;;;;;;;6.87;100.00;97158.00;5076204;28;20525;-64
2024/03/03 00:47:04;;;;;;;37.13;16.35;;;;;;;6.98;100.00;97157.28;5062104;28;20787;-63
2024/03/03 00:49:29;;;;;;;40.22;16.58;;;;;;;6.97;100.00;97156.47;5073243;28;20081;-64
2024/03/03 00:51:58;;;;;;;42.38;16.42;;;;;;;6.99;100.00;97148.16;5071260;28;20036;-62
2024/03/03 00:54:23;;;;;;;40.47;16.37;;;;;;;6.96;100.00;97146.72;5072069;28;20484;-64
2024/03/03 00:56:48;;;;;;;37.40;16.83;;;;;;;7.05;100.00;97141.91;5071025;28;20028;-64
2024/03/03 00:59:14;;;;;;;39.63;16.05;;;;;;;7.03;100.00;97141.31;5072152;28;20024;-62
2024/03/03 01:01:39;;;;;;;42.22;15.98;;;;;;;7.06;100.00;97148.94;5074916;28;20054;-62
2024/03/03 01:04:05;;;;;;;37.72;15.77;;;;;;;6.97;100.00;97140.34;5076333;28;20407;-62
2024/03/03 01:06:30;;;;;;;37.97;16.40;;;;;;;6.84;100.00;97136.91;5070155;28;20064;-62
2024/03/03 01:08:56;;;;;;;38.60;15.77;;;;;;;6.72;100.00;97137.66;5075380;28;20035;-64
2024/03/03 01:11:21;;;;;;;38.95;16.88;;;;;;;6.64;100.00;97132.56;5069555;28;20028;-63
2024/03/03 01:13:47;;;;;;;37.55;15.57;;;;;;;6.52;100.00;97135.13;5066707;28;20020;-62
2024/03/03 01:16:12;;;;;;;42.97;15.85;;;;;;;6.35;100.00;97123.28;5068994;28;20028;-62
2024/03/03 01:18:38;;;;;;;40.55;16.58;;;;;;;6.42;100.00;97123.19;5074703;28;20043;-64
2024/03/03 01:21:04;;;;;;;39.72;15.65;;;;;;;6.40;100.00;97134.19;5073227;28;20060;-64
2024/03/03 01:23:29;;;;;;;34.38;14.90;;;;;;;6.29;100.00;97127.66;5061977;28;20060;-61
2024/03/03 01:25:54;;;;;;;33.35;14.88;;;;;;;6.09;100.00;97121.59;5073631;28;20055;-61
2024/03/03 01:28:20;;;;;;;38.58;16.33;;;;;;;6.00;100.00;97120.19;5075733;28;20092;-61
2024/03/03 01:30:45;;;;;;;40.65;15.60;;;;;;;5.83;100.00;97109.91;5077802;28;20055;-62
2024/03/03 01:33:11;;;;;;;42.08;16.58;;;;;;;5.82;100.00;97116.34;5072150;28;20105;-61
2024/03/03 01:35:36;;;;;;;37.95;16.02;;;;;;;5.86;100.00;97111.34;5067971;28;20032;-61
2024/03/03 01:38:02;;;;;;;35.80;15.27;;;;;;;5.80;100.00;97110.34;5073259;28;20383;-61
2024/03/03 01:40:27;;;;;;;37.45;15.93;;;;;;;5.86;100.00;97108.66;5081553;28;20031;-62
2024/03/03 01:42:56;;;;;;;35.50;15.95;;;;;;;5.75;100.00;97112.03;5073128;28;20356;-62
2024/03/03 01:45:23;;;;;;;37.30;15.20;;;;;;;5.65;100.00;97105.25;5073375;28;20032;-61
2024/03/03 01:47:54;;;;;;;37.33;15.23;;;;;;;5.51;100.00;97102.88;5076366;28;20422;-62
2024/03/03 01:50:21;;;;;;;42.47;15.93;;;;;;;5.36;100.00;97090.53;5073620;28;20034;-62
2024/03/03 01:52:50;;;;;;;40.20;16.35;;;;;;;5.39;100.00;97111.56;5072124;28;20028;-62
2024/03/03 01:55:21;;;;;;;;;;;;;;;5.32;100.00;97109.94;5073689;28;20116;-61
2024/03/03 01:58:02;;;;;;;39.53;16.35;;;;;;;5.31;100.00;97109.13;5074487;28;19936;-61
2024/03/03 02:00:34;;;;;;;39.90;17.08;;;;;;;5.25;100.00;97105.44;5075142;28;20016;-61
2024/03/03 02:03:04;;;;;;;42.67;16.52;;;;;;;5.25;100.00;97096.56;5067518;28;20024;-61
2024/03/03 02:05:30;;;;;;;46.10;16.98;;;;;;;5.20;100.00;97091.84;5072666;28;20040;-61
2024/03/03 02:07:56;;;;;;;40.05;17.05;;;;;;;5.22;100.00;97097.00;5073198;28;20037;-62
2024/03/03 02:10:22;;;;;;;42.28;18.45;;;;;;;5.39;100.00;97094.66;5060691;28;20123;-62
2024/03/03 02:12:48;;;;;;;41.85;17.50;;;;;;;5.41;100.00;97093.41;5075272;28;20107;-61
2024/03/03 02:15:13;;;;;;;39.53;16.77;;;;;;;5.44;100.00;97108.25;5073849;28;20475;-61
2024/03/03 02:17:39;;;;;;;44.67;17.15;;;;;;;5.48;100.00;97110.31;5075678;28;20029;-61
2024/03/03 02:20:05;;;;;;;42.15;16.88;;;;;;;5.46;100.00;97101.63;5078684;28;20096;-62
2024/03/03 02:22:31;;;;;;;31.95;15.10;;;;;;;5.44;100.00;97097.53;5083414;28;20063;-61
2024/03/03 02:24:56;;;;;;;41.25;16.20;;;;;;;5.39;100.00;97084.75;5074342;28;20042;-61
2024/03/03 02:27:23;;;;;;;41.83;15.52;;;;;;;5.38;100.00;97083.09;5080480;28;20031;-61
2024/03/03 02:29:49;;;;;;;37.63;15.50;;;;;;;5.46;100.00;97090.91;5073273;28;20031;-61
2024/03/03 02:32:15;;;;;;;41.35;16.40;;;;;;;5.46;100.00;97093.59;5067065;28;20103;-62
2024/03/03 02:34:40;;;;;;;47.22;17.55;;;;;;;5.43;100.00;97091.34;5073178;28;20028;-62
2024/03/03 02:37:06;;;;;;;39.85;16.42;;;;;;;5.39;100.00;97090.09;5077255;28;20382;-62
2024/03/03 02:39:31;;;;;;;44.70;17.38;;;;;;;5.32;100.00;97097.38;5073362;28;20480;-65
2024/03/03 02:41:56;;;;;;;40.90;16.02;;;;;;;5.19;100.00;97092.88;5076570;28;20028;-62
2024/03/03 02:44:22;;;;;;;37.92;15.32;;;;;;;5.34;100.00;97094.47;5073238;28;20376;-61
2024/03/03 02:46:49;;;;;;;38.75;16.40;;;;;;;5.36;100.00;97101.25;5070124;28;20032;-61
2024/03/03 02:49:15;;;;;;;43.65;17.10;;;;;;;5.28;100.00;97098.81;5077139;28;20035;-61
2024/03/03 02:51:42;;;;;;;38.45;14.93;;;;;;;5.21;100.00;97104.22;5072188;28;20025;-61
2024/03/03 02:54:07;;;;;;;37.47;14.60;;;;;;;5.14;100.00;97102.59;5074236;28;20024;-61
2024/03/03 02:56:33;;;;;;;32.63;14.85;;;;;;;5.01;100.00;97098.91;5070927;28;20468;-61
2024/03/03 02:58:58;;;;;;;34.30;13.75;;;;;;;4.96;100.00;97096.03;5073638;28;20035;-61
2024/03/03 03:01:24;;;;;;;38.95;15.20;;;;;;;4.99;100.00;97092.91;5073957;28;20433;-62
2024/03/03 03:03:49;;;;;;;37.97;16.73;;;;;;;5.01;100.00;97080.13;5065303;28;20032;-62
2024/03/03 03:06:15;;;;;;;40.30;15.55;;;;;;;4.97;100.00;97092.31;5073400;28;20524;-61
2024/03/03 03:08:40;;;;;;;42.67;16.73;;;;;;;4.86;100.00;97086.78;5072892;28;20383;-62
2024/03/03 03:11:06;;;;;;;43.90;16.05;;;;;;;4.84;100.00;97085.13;5073679;28;21165;-62
2024/03/03 03:13:31;;;;;;;44.53;16.50;;;;;;;4.76;100.00;97076.47;5070279;28;20046;-61
2024/03/03 03:15:57;;;;;;;46.10;16.05;;;;;;;4.78;100.00;97095.84;5069522;28;20021;-62
2024/03/03 03:18:22;;;;;;;42.45;16.48;;;;;;;4.77;100.00;97091.53;5068981;28;20033;-62
2024/03/03 03:20:47;;;;;;;42.28;16.65;;;;;;;4.83;100.00;97099.56;5075682;28;20157;-61
2024/03/03 03:23:13;;;;;;;44.25;17.58;;;;;;;4.78;100.00;97098.53;5064442;28;20040;-62
2024/03/03 03:25:38;;;;;;;40.22;16.23;;;;;;;4.74;100.00;97091.94;5072759;28;20031;-62
2024/03/03 03:28:04;;;;;;;46.95;17.65;;;;;;;4.76;100.00;97096.06;5074906;28;20028;-62
2024/03/03 03:30:29;;;;;;;39.15;16.00;;;;;;;4.82;100.00;97105.09;5073930;28;20463;-62
2024/03/03 03:32:55;;;;;;;45.25;18.05;;;;;;;4.82;100.00;97116.66;5068750;28;20476;-61
2024/03/03 03:35:22;;;;;;;44.95;17.98;;;;;;;4.85;100.00;97115.44;5067514;28;20025;-61
2024/03/03 03:37:47;;;;;;;43.63;17.48;;;;;;;4.85;100.00;97123.47;5067803;28;20024;-61
2024/03/03 03:40:13;;;;;;;45.60;16.73;;;;;;;4.81;100.00;97114.19;5072882;28;20150;-61
2024/03/03 03:42:39;;;;;;;42.03;16.08;;;;;;;4.67;100.00;97112.56;5071602;28;20031;-62
2024/03/03 03:45:05;;;;;;;42.90;16.05;;;;;;;4.63;100.00;97127.41;5068785;28;20407;-61
2024/03/03 03:47:32;;;;;;;42.92;17.50;;;;;;;4.51;100.00;97125.34;5069430;28;20054;-62
2024/03/03 03:49:57;;;;;;;41.70;16.20;;;;;;;4.60;100.00;97139.34;5072691;28;20020;-61
2024/03/03 03:52:23;;;;;;;37.15;15.40;;;;;;;4.56;100.00;97140.81;5070127;28;20039;-61
2024/03/03 03:54:48;;;;;;;42.40;16.75;;;;;;;4.56;100.00;97143.47;5052542;28;20108;-61
2024/03/03 03:57:14;;;;;;;44.38;15.85;;;;;;;4.52;100.00;97134.19;5072912;28;20024;-61
2024/03/03 03:59:40;;;;;;;40.60;16.52;;;;;;;4.49;100.00;97126.59;5075951;28;20028;-61
2024/03/03 04:02:06;;;;;;;43.25;16.23;;;;;;;4.49;100.00;97134.63;5074748;28;20047;-61
2024/03/03 04:04:34;;;;;;;39.22;16.42;;;;;;;4.39;100.00;97126.97;5070916;28;20036;-61
2024/03/03 04:07:01;;;;;;;37.40;15.85;;;;;;;4.34;100.00;97124.91;5074621;28;20365;-61
2024/03/03 04:09:27;;;;;;;45.92;16.40;;;;;;;4.33;100.00;97138.53;5077388;28;20028;-61
2024/03/03 04:11:53;;;;;;;42.35;16.70;;;;;;;4.32;100.00;97136.84;5072678;28;20047;-62
2024/03/03 04:14:18;;;;;;;47.45;17.05;;;;;;;4.20;100.00;97104.53;5069978;28;20020;-63
2024/03/03 04:16:44;;;;;;;37.35;16.13;;;;;;;4.26;100.00;97124.28;5072280;28;20024;-62
2024/03/03 04:19:11;;;;;;;43.47;16.73;;;;;;;4.22;100.00;97123.03;5072540;28;20028;-62
2024/03/03 04:21:43;;;;;;;47.72;17.25;;;;;;;4.08;100.00;97130.25;5072077;28;20077;-62
2024/03/03 04:24:08;;;;;;;47.15;18.63;;;;;;;4.09;100.00;97129.22;5070788;28;20026;-62
2024/03/03 04:26:34;;;;;;;41.90;17.95;;;;;;;4.05;100.00;97126.13;5074517;28;20601;-62
2024/03/03 04:29:00;;;;;;;49.97;19.77;;;;;;;4.02;100.00;97131.88;5072307;28;20114;-62
2024/03/03 04:31:25;;;;;;;51.75;19.25;;;;;;;3.93;100.00;97136.59;5072310;28;20032;-62
2024/03/03 04:33:51;;;;;;;44.40;17.10;;;;;;;3.89;100.00;97119.28;5069898;28;20029;-62
2024/03/03 04:36:16;;;;;;;51.50;17.63;;;;;;;3.88;100.00;97127.53;5073663;28;20027;-62
2024/03/03 04:38:42;;;;;;;41.85;15.77;;;;;;;3.87;100.00;97124.00;5076772;28;20383;-62
2024/03/03 04:41:20;;;;;;;54.25;18.27;;;;;;;3.78;100.00;97127.09;5072385;28;20090;-62
2024/03/03 04:43:46;;;;;;;47.58;18.70;;;;;;;3.87;100.00;97133.91;5068639;28;20020;-62
2024/03/03 04:46:12;;;;;;;51.55;18.65;;;;;;;3.87;100.00;97124.00;5071172;28;20029;-62
2024/03/03 04:48:39;;;;;;;57.25;19.40;;;;;;;3.82;100.00;97115.78;5074618;28;20040;-62
2024/03/03 04:51:04;;;;;;;50.38;19.77;;;;;;;3.78;100.00;97122.56;5075104;28;20526;-62
2024/03/03 04:53:30;;;;;;;66.70;22.25;;;;;;;3.76;100.00;97118.44;5070903;28;20032;-62
2024/03/03 04:55:56;;;;;;;56.25;20.38;;;;;;;3.68;100.00;97119.44;5071956;28;20483;-65
2024/03/03 04:58:21;;;;;;;52.60;19.80;;;;;;;3.62;100.00;97117.59;5070287;28;20519;-66
2024/03/03 05:00:46;;;;;;;53.53;19.00;;;;;;;3.48;100.00;97114.88;5068424;28;20029;-62
2024/03/03 05:03:12;;;;;;;48.72;18.75;;;;;;;3.45;100.00;97115.25;5069236;28;20032;-62
2024/03/03 05:05:37;;;;;;;54.05;19.42;;;;;;;3.41;100.00;97111.34;5071082;28;20111;-62
2024/03/03 05:08:03;;;;;;;57.78;20.77;;;;;;;3.37;100.00;97102.06;5072201;28;20028;-62
2024/03/03 05:10:29;;;;;;;71.20;21.55;;;;;;;3.40;100.00;97106.19;5074937;28;20549;-62
2024/03/03 05:12:54;;;;;;;51.50;20.40;;;;;;;3.42;100.00;97109.47;5072589;28;20090;-61
2024/03/03 05:15:19;;;;;;;54.85;20.42;;;;;;;3.50;100.00;97101.28;5073044;28;20100;-62
2024/03/03 05:17:45;;;;;;;56.25;21.00;;;;;;;3.40;100.00;97108.84;5070326;28;20503;-61
2024/03/03 05:20:11;;;;;;;53.78;21.23;;;;;;;3.44;100.00;97121.63;5092430;22;20075;-83
2024/03/03 05:22:37;;;;;;;55.83;18.92;;;;;;;3.48;100.00;97128.22;5070766;28;20254;-81
2024/03/03 05:25:04;;;;;;;54.53;19.88;;;;;;;3.37;100.00;97114.59;5071854;28;20119;-86
2024/03/03 05:27:33;;;;;;;42.95;17.25;;;;;;;3.15;100.00;97087.16;5070439;28;20039;-83
2024/03/03 05:30:00;;;;;;;42.93;16.53;;;;;;;3.20;100.00;97106.94;5072678;28;20350;-85
2024/03/03 05:32:25;;;;;;;42.50;15.73;;;;;;;3.23;100.00;97122.56;5064933;28;20031;-82
2024/03/03 05:34:50;;;;;;;43.75;16.45;;;;;;;3.01;100.00;97095.13;5071128;28;20024;-84
2024/03/03 05:37:16;;;;;;;41.08;15.82;;;;;;;3.06;100.00;97102.53;5071034;28;20235;-83
2024/03/03 05:39:42;;;;;;;45.80;15.60;;;;;;;3.24;100.00;97115.34;5063396;28;20039;-82
2024/03/03 05:42:08;;;;;;;41.00;16.17;;;;;;;3.10;100.00;97090.44;5061630;28;20024;-81
2024/03/03 05:44:33;;;;;;;47.30;16.40;;;;;;;3.11;100.00;97107.28;5063989;28;20049;-80
2024/03/03 05:46:59;;;;;;;43.90;16.23;;;;;;;3.16;100.00;97124.38;5067393;28;20024;-79
2024/03/03 05:49:25;;;;;;;42.30;16.70;;;;;;;3.09;100.00;97123.50;5064548;28;20079;-81
2024/03/03 05:51:50;;;;;;;47.80;17.70;;;;;;;3.00;100.00;97125.50;5065489;28;20033;-80
2024/03/03 05:54:16;;;;;;;48.10;16.67;;;;;;;2.95;100.00;97133.28;5068144;28;20064;-81
2024/03/03 05:56:41;;;;;;;44.53;16.48;;;;;;;2.82;100.00;97122.53;5074283;28;20054;-80
2024/03/03 05:59:07;;;;;;;53.45;17.02;;;;;;;2.82;100.00;97131.34;5067036;28;20048;-80
2024/03/03 06:01:32;;;;;;;51.88;17.75;;;;;;;2.77;100.00;97144.47;5066042;28;20065;-81
2024/03/03 06:03:57;;;;;;;53.85;18.90;;;;;;;2.87;100.00;97138.78;5065704;28;20032;-80
2024/03/03 06:06:24;;;;;;;55.30;18.63;;;;;;;2.85;100.00;97128.28;5067314;28;20033;-80
2024/03/03 06:08:50;;;;;;;52.67;18.83;;;;;;;3.05;100.00;97146.31;5088625;23;20052;-50
2024/03/03 06:11:18;;;;;;;54.40;18.52;;;;;;;3.11;100.00;97145.50;5075679;28;20050;-50
2024/03/03 06:13:45;;;;;;;48.13;18.03;;;;;;;3.06;100.00;97153.28;5083874;28;20016;-51
2024/03/03 06:16:10;;;;;;;46.55;16.27;;;;;;;3.05;100.00;97157.00;5062239;28;20422;-50
2024/03/03 06:18:35;;;;;;;52.88;18.52;;;;;;;3.05;100.00;97140.97;5062948;28;20108;-50
2024/03/03 06:21:01;;;;;;;45.28;17.83;;;;;;;3.10;100.00;97151.06;5066046;28;20040;-50
2024/03/03 06:23:26;;;;;;;45.85;17.75;;;;;;;3.13;100.00;97150.66;5061265;28;20036;-50
2024/03/03 06:25:52;;;;;;;41.75;16.95;;;;;;;3.17;100.00;97155.44;5064393;28;20020;-50
2024/03/03 06:28:18;;;;;;;45.88;18.38;;;;;;;3.30;100.00;97160.00;5069957;28;20020;-50
2024/03/03 06:30:43;;;;;;;44.50;16.45;;;;;;;3.36;100.00;97158.41;5061428;28;20021;-49
2024/03/03 06:33:12;;;;;;;45.13;17.17;;;;;;;3.51;100.00;97153.72;5061557;28;20040;-50
2024/03/03 06:35:38;;;;;;;43.33;17.60;;;;;;;3.71;100.00;97154.63;5057357;28;20051;-49
2024/03/03 06:38:04;;;;;;;43.35;15.63;;;;;;;4.51;100.00;97146.78;5054522;28;20021;-49
2024/03/03 06:40:29;;;;;;;42.53;16.15;;;;;;;6.24;100.00;97130.16;5060243;28;20031;-50
2024/03/03 06:42:55;;;;;;;32.72;14.02;;;;;;;8.09;100.00;97096.94;5060545;28;20417;-49
2024/03/03 06:45:20;;;;;;;27.75;11.82;;;;;;;9.32;100.00;97091.00;5062552;28;20028;-50
2024/03/03 06:47:45;;;;;;;26.20;11.90;;;;;;;10.69;100.00;97078.44;5055102;28;20024;-50
2024/03/03 06:50:11;;;;;;;23.90;11.52;;;;;;;11.99;100.00;97072.59;5056478;28;20116;-50
2024/03/03 06:52:36;;;;;;;24.23;11.35;;;;;;;12.12;100.00;97071.38;5059417;28;20074;-47
2024/03/03 06:55:02;;;;;;;24.02;10.30;;;;;;;13.28;100.00;97076.13;5066849;28;20082;-48
2024/03/03 06:57:27;;;;;;;23.63;11.60;;;;;;;13.52;100.00;97067.56;5056195;28;20375;-48
2024/03/03 06:59:53;;;;;;;22.65;11.57;;;;;;;14.62;100.00;97066.50;5063130;28;20107;-48
2024/03/03 07:02:19;;;;;;;27.88;12.45;;;;;;;14.88;100.00;97064.53;5063158;28;20466;-48
2024/03/03 07:04:45;;;;;;;21.67;10.82;;;;;;;15.42;95.57;97069.34;5064492;28;20021;-48
2024/03/03 07:07:11;;;;;;;25.65;12.02;;;;;;;15.80;88.56;97067.06;5054837;28;20017;-48
2024/03/03 07:09:37;;;;;;;22.85;11.00;;;;;;;15.84;82.36;97072.78;5047304;28;20067;-48
2024/03/03 07:12:03;;;;;;;22.85;12.05;;;;;;;16.81;76.95;97075.72;5063584;28;20387;-49
2024/03/03 07:14:29;;;;;;;24.88;11.30;;;;;;;17.75;67.98;97072.56;5057939;28;20028;-49
2024/03/03 07:16:56;;;;;;;22.35;12.02;;;;;;;18.24;66.22;97069.81;5054544;28;20057;-49
2024/03/03 07:19:21;;;;;;;20.30;12.00;;;;;;;18.76;64.76;97057.78;5056018;28;20066;-49
2024/03/03 07:21:47;;;;;;;24.42;11.70;;;;;;;18.85;62.73;97060.66;5047000;28;20033;-49
2024/03/03 07:24:13;;;;;;;20.27;12.30;;;;;;;18.59;63.14;97073.91;5051090;28;20025;-49
2024/03/03 07:26:38;;;;;;;20.40;11.77;;;;;;;19.35;60.58;97071.84;5054970;28;20029;-51
2024/03/03 07:29:04;;;;;;;21.33;12.57;;;;;;;19.24;59.55;97070.41;5069039;28;20096;-52
2024/03/03 07:31:30;;;;;;;20.15;11.70;;;;;;;19.86;57.12;97073.63;5049957;28;20103;-53
2024/03/03 07:33:56;;;;;;;19.58;11.70;;;;;;;19.58;58.76;97071.97;5054979;28;20017;-53
2024/03/03 07:36:21;;;;;;;23.92;11.73;;;;;;;21.35;55.13;97076.47;5060822;28;20083;-53
2024/03/03 07:38:47;;;;;;;23.08;13.85;;;;;;;20.07;56.17;97070.44;5064151;28;20029;-53
2024/03/03 07:41:13;;;;;;;21.65;13.05;;;;;;;21.93;54.35;97047.09;5050950;28;20036;-53
2024/03/03 07:43:38;;;;;;;20.48;12.15;;;;;;;22.14;52.66;97047.31;5055652;28;20426;-53
2024/03/03 07:46:04;;;;;;;22.23;12.63;;;;;;;22.15;52.95;97045.34;5062838;28;20021;-53
2024/03/03 07:48:29;;;;;;;18.67;11.90;;;;;;;22.93;52.01;97037.91;5056103;28;20151;-53
2024/03/03 07:50:55;;;;;;;18.27;12.07;;;;;;;22.45;52.26;97041.69;5052324;28;20017;-53
2024/03/03 07:53:21;;;;;;;22.92;12.82;;;;;;;21.74;52.99;97041.84;5054195;28;20104;-53
2024/03/03 07:55:47;;;;;;;19.98;12.27;;;;;;;22.88;52.19;97035.34;5059858;28;20035;-53
2024/03/03 07:58:13;;;;;;;20.70;12.52;;;;;;;21.26;53.34;97039.84;5045098;28;20028;-53
2024/03/03 08:00:40;;;;;;;24.27;12.77;;;;;;;22.12;53.48;97040.50;5065020;28;20035;-53
2024/03/03 08:03:05;;;;;;;21.52;11.88;;;;;;;20.85;55.11;97053.84;5058859;28;20040;-53
2024/03/03 08:05:32;;;;;;;20.42;12.50;;;;;;;22.53;52.58;97037.28;5062324;28;20020;-53
2024/03/03 08:07:58;;;;;;;20.80;12.35;;;;;;;22.89;51.23;97023.16;5053944;28;20017;-53
2024/03/03 08:10:24;;;;;;;21.50;11.57;;;;;;;25.20;48.51;97028.31;5056297;28;20029;-53
2024/03/03 08:12:50;;;;;;;21.60;12.20;;;;;;;24.82;45.81;97021.03;5047815;28;20380;-53
2024/03/03 08:15:15;;;;;;;19.58;12.15;;;;;;;25.62;45.65;97020.66;5053216;28;20059;-53
2024/03/03 08:17:41;;;;;;;16.58;11.13;;;;;;;27.06;44.36;97006.38;5048968;28;20033;-53
2024/03/03 08:20:07;;;;;;;18.55;11.90;;;;;;;25.94;44.76;97010.66;5049744;28;20029;-54
2024/03/03 08:22:33;;;;;;;17.25;11.98;;;;;;;25.78;44.35;97021.59;5058436;28;20020;-54
2024/03/03 08:24:59;;;;;;;18.35;12.52;;;;;;;25.48;44.30;97018.22;5046149;28;20025;-53
2024/03/03 08:27:27;;;;;;;16.77;11.50;;;;;;;24.57;46.02;97028.41;5048937;28;20029;-53
2024/03/03 08:29:52;;;;;;;17.73;11.88;;;;;;;25.14;45.43;97020.19;5049709;28;20025;-53
2024/03/03 08:32:18;;;;;;;19.73;12.40;;;;;;;25.01;45.80;97021.31;5049611;28;20107;-53
2024/03/03 08:34:44;;;;;;;17.20;11.85;;;;;;;25.67;45.54;97014.88;5052867;28;20043;-53
2024/03/03 08:37:09;;;;;;;16.73;11.63;;;;;;;26.53;44.29;97017.59;5055757;28;20159;-53
2024/03/03 08:39:35;;;;;;;17.50;11.00;;;;;;;26.57;44.21;97018.50;5055246;28;20488;-53
2024/03/03 08:42:00;;;;;;;20.45;11.07;;;;;;;25.94;44.84;97007.06;5055171;28;20049;-54
2024/03/03 08:44:26;;;;;;;18.90;12.65;;;;;;;23.67;47.21;97019.34;5058490;28;20037;-53
2024/03/03 08:46:51;;;;;;;21.95;12.45;;;;;;;23.55;48.64;97020.06;5049378;28;20041;-53
2024/03/03 08:49:17;;;;;;;20.63;12.32;;;;;;;23.66;48.23;97009.47;5058063;28;20032;-53
2024/03/03 08:51:43;;;;;;;20.23;12.85;;;;;;;23.67;48.99;97005.56;5054283;28;20025;-53
2024/03/03 08:54:08;;;;;;;18.17;11.07;;;;;;;25.64;47.18;97009.22;5056856;28;20311;-53
2024/03/03 08:56:34;;;;;;;15.57;10.65;;;;;;;26.54;45.92;96998.97;5047372;28;20025;-52
2024/03/03 08:58:59;;;;;;;17.38;11.38;;;;;;;26.57;45.45;97001.06;5062818;28;20028;-53
2024/03/03 09:01:25;;;;;;;17.83;12.00;;;;;;;27.41;44.10;97001.00;5051289;28;20063;-53
2024/03/03 09:03:50;;;;;;;18.65;11.32;;;;;;;27.67;42.85;96997.66;5047021;28;20025;-53
2024/03/03 09:06:16;;;;;;;20.63;12.32;;;;;;;27.66;42.99;97007.16;5043824;28;20028;-53
2024/03/03 09:08:44;;;;;;;17.55;11.98;;;;;;;26.14;44.17;97005.28;5008586;28;1174725;-53
2024/03/03 09:11:12;;;;;;;16.05;11.30;;;;;;;26.62;44.31;97003.59;5045349;28;20025;-53
2024/03/03 09:13:37;;;;;;;18.83;10.27;;;;;;;27.60;43.94;96994.72;5043417;28;20403;-52
2024/03/03 09:16:05;;;;;;;16.75;10.95;;;;;;;25.78;44.62;97004.97;5041978;28;20287;-52
2024/03/03 09:18:30;;;;;;;18.80;11.30;;;;;;;22.35;49.64;97008.13;5047278;28;20028;-53
2024/03/03 09:20:55;;;;;;;15.52;10.25;;;;;;;23.71;48.83;97002.94;5046317;28;20047;-53
2024/03/03 09:23:21;;;;;;;18.48;11.07;;;;;;;24.12;48.88;97006.94;5061898;28;20044;-53
2024/03/03 09:25:47;;;;;;;15.85;11.43;;;;;;;24.73;46.82;97000.94;5038503;28;20036;-53
2024/03/03 09:28:12;;;;;;;16.05;10.43;;;;;;;25.84;45.39;96993.66;5051672;28;20112;-53
2024/03/03 09:30:37;;;;;;;15.88;9.43;;;;;;;27.51;43.15;96999.66;5042303;28;20093;-53
2024/03/03 09:33:03;;;;;;;14.55;9.90;;;;;;;28.09;41.67;96994.31;5044191;28;20037;-53
2024/03/03 09:35:29;;;;;;;12.90;10.07;;;;;;;27.60;40.94;96991.94;5042004;28;20040;-53
2024/03/03 09:37:55;;;;;;;14.07;10.10;;;;;;;25.90;42.30;96989.50;5046193;28;20482;-53
2024/03/03 09:40:22;;;;;;;15.18;10.50;;;;;;;25.24;44.40;96998.81;5055533;28;20067;-53
2024/03/03 09:42:49;;;;;;;13.52;9.77;;;;;;;26.40;42.76;96991.03;5061104;28;20384;-53
2024/03/03 09:45:19;;;;;;;13.65;9.35;;;;;;;27.01;42.98;96987.19;5054447;28;20049;-52
2024/03/03 09:47:47;;;;;;;14.20;9.77;;;;;;;27.93;40.32;96988.78;5050818;28;20017;-52
2024/03/03 09:50:14;;;;;;;;;;;;;;;28.50;40.00;96985.66;5059427;28;20023;-53
2024/03/03 09:52:44;;;;;;;14.45;9.60;;;;;;;27.94;39.96;96984.03;5061674;28;19916;-53
2024/03/03 09:55:10;;;;;;;13.40;9.20;;;;;;;27.66;39.53;96984.94;5048365;28;20021;-48
2024/03/03 09:57:39;;;;;;;13.20;8.90;;;;;;;30.07;38.36;96985.72;5058131;28;20107;-48
2024/03/03 10:00:08;;;;;;;10.70;8.35;;;;;;;31.70;36.19;96976.06;5057305;28;20021;-48
2024/03/03 10:02:39;;;;;;;13.15;8.95;;;;;;;30.61;37.21;96980.91;5061702;28;20111;-48
2024/03/03 10:05:08;;;;;;;11.65;8.73;;;;;;;32.02;35.92;96967.16;5060757;28;20094;-48
2024/03/03 10:07:45;;;;;;;11.57;7.68;;;;;;;33.14;34.48;96981.28;5057425;28;20479;-49
2024/03/03 10:10:18;;;;;;;12.75;9.18;;;;;;;32.96;34.88;96975.59;5061931;28;20024;-49
2024/03/03 10:12:46;;;;;;;11.48;8.02;;;;;;;33.78;33.39;96962.91;5056974;28;20035;-52
2024/03/03 10:15:11;;;;;;;;;;;;;;;31.90;34.93;96978.59;5054295;28;20020;-53
2024/03/03 10:17:37;;;;;;;11.02;7.13;;;;;;;30.03;36.68;96982.09;5060059;28;19919;-54
2024/03/03 10:20:08;;;;;;;13.73;8.63;;;;;;;28.49;38.30;96979.31;5062227;28;20437;-53
2024/03/03 10:22:34;;;;;;;12.52;9.05;;;;;;;27.94;38.14;96984.03;5056039;28;20028;-48
2024/03/03 10:25:10;;;;;;;10.98;8.07;;;;;;;29.94;36.61;96975.97;5061357;28;20399;-48
2024/03/03 10:27:40;;;;;;;10.23;7.68;;;;;;;33.79;33.92;96976.53;5052791;28;20657;-48
2024/03/03 10:30:07;;;;;;;10.30;7.85;;;;;;;34.40;32.63;96972.81;5061443;28;20441;-48
2024/03/03 10:32:34;;;;;;;10.03;7.73;;;;;;;34.78;31.75;96971.13;5058508;28;20048;-48
2024/03/03 10:35:00;;;;;;;9.43;7.35;;;;;;;35.05;31.42;96965.75;5060170;28;20070;-48
2024/03/03 10:37:27;;;;;;;10.57;7.82;;;;;;;37.24;30.55;96961.59;5059991;28;20044;-49
2024/03/03 10:39:53;;;;;;;9.25;7.30;;;;;;;34.72;31.60;96963.53;5054058;28;20017;-53
2024/03/03 10:42:18;;;;;;;9.82;7.43;;;;;;;32.08;33.39;96971.16;5059549;28;20051;-53
2024/03/03 10:44:44;;;;;;;10.35;8.00;;;;;;;34.22;32.14;96968.09;5059644;28;20028;-53
2024/03/03 10:47:13;;;;;;;11.50;7.68;;;;;;;34.61;32.03;96972.81;5059607;28;20468;-53
2024/03/03 10:49:40;;;;;;;9.27;7.30;;;;;;;33.16;32.10;96961.25;5066833;28;20029;-53
2024/03/03 10:52:09;;;;;;;9.77;7.07;;;;;;;35.37;31.21;96961.97;5059544;28;20072;-53
2024/03/03 10:54:34;;;;;;;7.70;6.75;;;;;;;37.36;30.31;96959.41;5057469;28;20539;-54
2024/03/03 10:57:00;;;;;;;7.97;6.53;;;;;;;36.11;28.96;96950.53;5059360;28;20049;-53
2024/03/03 10:59:29;;;;;;;9.30;7.28;;;;;;;34.99;30.29;96949.72;5065556;28;20021;-54
2024/03/03 11:01:56;;;;;;;8.30;7.03;;;;;;;35.22;30.88;96943.59;5053840;28;20044;-55
2024/03/03 11:04:29;;;;;;;9.95;6.60;;;;;;;35.56;30.78;96950.16;5059647;28;20119;-58
2024/03/03 11:06:57;;;;;;;9.05;7.35;;;;;;;35.15;30.67;96935.22;5056074;28;20116;-57
2024/03/03 11:09:24;;;;;;;7.97;5.95;;;;;;;35.91;31.09;96937.00;5065029;28;20107;-58
2024/03/03 11:12:00;;;;;;;9.20;7.00;;;;;;;34.43;31.15;96929.91;5062018;28;20036;-58
2024/03/03 11:14:32;;;;;;;9.20;7.30;;;;;;;32.52;33.39;96937.44;5049280;28;20028;-58